createdAt,value
2018-09-17T00:01:08.209Z,16.60
2018-09-17T00:03:36.693Z,17.93
2018-09-17T00:06:05.208Z,19.00
2018-09-17T00:08:34.677Z,17.90
2018-09-17T00:11:04.537Z,18.67
2018-09-17T00:13:33.013Z,18.60
2018-09-17T00:16:01.480Z,19.23
2018-09-17T00:18:29.945Z,18.33
2018-09-17T00:20:59.485Z,17.90
2018-09-17T00:23:27.921Z,17.50
2018-09-17T00:25:56.408Z,17.93
2018-09-17T00:28:25.953Z,19.57
2018-09-17T00:30:54.403Z,18.30
2018-09-17T00:33:23.945Z,19.00
2018-09-17T00:35:52.489Z,18.40
2018-09-17T00:38:21.998Z,18.43
2018-09-17T00:40:50.512Z,18.37
2018-09-17T00:43:18.941Z,19.23
2018-09-17T00:45:49.414Z,18.27
2018-09-17T00:48:17.864Z,18.03
2018-09-17T00:50:46.362Z,18.37
2018-09-17T00:53:14.864Z,17.07
2018-09-17T00:55:43.321Z,17.73
2018-09-17T00:58:11.821Z,18.03
2018-09-17T01:00:41.328Z,17.90
2018-09-17T01:03:10.816Z,18.50
2018-09-17T01:05:39.322Z,19.27
2018-09-17T01:08:07.911Z,18.00
2018-09-17T01:10:36.467Z,18.60
2018-09-17T01:13:04.961Z,17.20
2018-09-17T01:15:34.429Z,20.63
2018-09-17T01:18:02.941Z,18.10
2018-09-17T01:20:32.449Z,15.97
2018-09-17T01:23:00.961Z,18.57
2018-09-17T01:25:30.409Z,18.60
2018-09-17T01:27:58.913Z,18.03
2018-09-17T01:30:27.440Z,17.37
2018-09-17T01:32:55.884Z,18.67
2018-09-17T01:35:25.369Z,18.70
2018-09-17T01:37:54.904Z,19.43
2018-09-17T01:40:23.434Z,18.97
2018-09-17T01:42:51.957Z,18.10
2018-09-17T01:45:21.425Z,17.70
2018-09-17T01:47:49.941Z,18.73
2018-09-17T01:50:18.407Z,18.50
2018-09-17T01:52:46.914Z,19.60
2018-09-17T01:55:15.429Z,19.30
2018-09-17T01:57:43.925Z,18.73
2018-09-17T02:00:12.454Z,19.30
2018-09-17T02:02:40.948Z,19.27
2018-09-17T02:05:10.489Z,18.83
2018-09-17T02:07:39.085Z,18.93
2018-09-17T02:10:08.601Z,18.50
2018-09-17T02:12:37.121Z,19.40
2018-09-17T02:15:05.625Z,19.60
2018-09-17T02:17:34.193Z,18.83
2018-09-17T02:20:02.791Z,18.50
2018-09-17T02:22:31.382Z,18.87
2018-09-17T02:24:59.935Z,18.37
2018-09-17T02:27:28.443Z,17.47
2018-09-17T02:29:57.013Z,18.13
2018-09-17T02:32:25.562Z,18.80
2018-09-17T02:34:54.022Z,18.10
2018-09-17T02:37:22.530Z,17.20
2018-09-17T02:39:51.069Z,18.43
2018-09-17T02:42:19.627Z,18.70
2018-09-17T02:44:48.158Z,18.97
2018-09-17T02:47:16.705Z,18.93
2018-09-17T02:49:45.218Z,19.00
2018-09-17T02:52:14.721Z,18.90
2018-09-17T02:54:43.217Z,18.97
2018-09-17T02:57:11.725Z,18.67
2018-09-17T02:59:40.177Z,17.37
2018-09-17T03:02:08.657Z,16.83
2018-09-17T03:04:37.170Z,17.40
2018-09-17T03:07:05.783Z,17.80
2018-09-17T03:09:34.349Z,18.30
2018-09-17T03:12:02.869Z,18.67
2018-09-17T03:14:31.436Z,17.90
2018-09-17T03:17:13.897Z,17.03
2018-09-17T03:19:43.590Z,17.90
2018-09-17T03:22:13.132Z,17.90
2018-09-17T03:24:42.613Z,18.60
2018-09-17T03:27:11.241Z,19.07
2018-09-17T03:29:39.794Z,19.47
2018-09-17T03:32:08.286Z,18.17
2018-09-17T03:34:36.756Z,17.63
2018-09-17T03:37:05.342Z,17.60
2018-09-17T03:39:33.794Z,18.97
2018-09-17T03:42:02.304Z,17.03
2018-09-17T03:44:31.793Z,17.40
2018-09-17T03:47:00.309Z,21.00
2018-09-17T03:49:28.881Z,25.80
2018-09-17T03:51:57.433Z,19.13
2018-09-17T03:54:25.962Z,18.10
2018-09-17T03:56:54.501Z,17.73
2018-09-17T03:59:22.989Z,19.60
2018-09-17T04:01:52.476Z,23.10
2018-09-17T04:04:20.986Z,24.30
2018-09-17T04:06:50.616Z,22.80
2018-09-17T04:09:20.115Z,23.70
2018-09-17T04:11:48.654Z,22.70
2018-09-17T04:14:17.178Z,20.50
2018-09-17T04:16:45.640Z,19.33
2018-09-17T04:19:14.097Z,19.27
2018-09-17T04:21:43.657Z,19.00
2018-09-17T04:24:12.201Z,18.13
2018-09-17T04:26:40.727Z,20.33
2018-09-17T04:29:09.418Z,21.67
2018-09-17T04:31:37.994Z,22.40
2018-09-17T04:34:06.837Z,18.73
2018-09-17T04:37:06.533Z,19.93
2018-09-17T04:39:38.207Z,19.03
2018-09-17T04:42:06.969Z,21.93
2018-09-17T04:44:35.461Z,18.50
2018-09-17T04:47:03.989Z,19.50
2018-09-17T04:49:33.453Z,18.30
2018-09-17T04:52:02.002Z,18.97
2018-09-17T04:54:30.522Z,20.40
2018-09-17T04:56:58.997Z,18.93
2018-09-17T04:59:27.522Z,18.17
2018-09-17T05:01:56.029Z,18.97
2018-09-17T05:04:24.569Z,18.10
2018-09-17T05:06:53.396Z,24.63
2018-09-17T05:09:22.882Z,18.33
2018-09-17T05:11:52.366Z,17.80
2018-09-17T05:14:21.086Z,18.73
2018-09-17T05:16:49.613Z,19.33
2018-09-17T05:19:18.129Z,19.47
2018-09-17T05:21:47.279Z,18.57
2018-09-17T05:24:16.848Z,17.30
2018-09-17T05:26:45.390Z,18.33
2018-09-17T05:29:13.917Z,19.33
2018-09-17T05:31:42.457Z,19.00
2018-09-17T05:34:10.995Z,20.03
2018-09-17T05:36:39.542Z,18.03
2018-09-17T05:39:10.211Z,17.37
2018-09-17T08:05:11.149Z,23.30
2018-09-17T08:07:39.606Z,20.33
2018-09-17T08:10:08.096Z,18.80
2018-09-17T08:12:36.577Z,18.47
2018-09-17T08:15:06.241Z,20.73
2018-09-17T08:17:34.715Z,20.77
2018-09-17T08:20:03.209Z,21.40
2018-09-17T08:22:31.716Z,21.90
2018-09-17T08:25:00.232Z,21.60
2018-09-17T08:27:28.745Z,21.00
2018-09-17T08:29:57.248Z,18.60
2018-09-17T08:32:25.733Z,20.27
2018-09-17T08:34:55.230Z,19.83
2018-09-17T08:37:23.682Z,19.47
2018-09-17T08:39:52.217Z,18.60
2018-09-17T08:42:20.741Z,18.50
2018-09-17T08:44:49.241Z,18.77
2018-09-17T08:47:17.733Z,19.20
2018-09-17T08:49:46.217Z,18.80
2018-09-17T08:52:14.741Z,18.27
2018-09-17T08:54:48.509Z,19.90
2018-09-17T08:57:22.298Z,19.17
2018-09-17T08:59:56.221Z,19.70
2018-09-17T09:02:30.009Z,19.90
2018-09-17T09:05:02.745Z,19.20
2018-09-17T09:07:31.186Z,18.30
2018-09-17T09:10:05.062Z,21.37
2018-09-17T09:12:40.165Z,18.97
2018-09-17T09:15:13.954Z,19.20
2018-09-17T09:17:42.509Z,20.80
2018-09-17T09:20:10.999Z,19.40
2018-09-17T11:13:46.245Z,15.73
2018-09-17T11:16:15.761Z,17.00
2018-09-17T14:24:39.189Z,10.87
2018-09-17T14:27:07.650Z,9.63
2018-09-17T14:29:36.199Z,9.63
2018-09-17T14:33:12.957Z,9.77
2018-09-17T14:35:41.500Z,9.10
2018-09-17T14:38:09.943Z,9.30
2018-09-17T14:40:38.394Z,8.80
2018-09-17T14:43:06.858Z,8.17
2018-09-17T14:45:35.302Z,8.00
2018-09-17T14:48:03.893Z,7.83
2018-09-17T14:50:32.317Z,8.10
2018-09-17T14:53:00.793Z,7.20
2018-09-17T14:55:29.274Z,8.53
2018-09-17T14:57:57.867Z,8.00
2018-09-17T15:00:26.297Z,7.57
2018-09-17T15:02:54.730Z,7.20
2018-09-17T15:05:23.409Z,8.10
2018-09-17T15:07:51.850Z,6.80
2018-09-17T15:10:20.375Z,7.90
2018-09-17T15:12:48.789Z,8.57
2018-09-17T15:15:17.259Z,7.30
2018-09-17T15:17:45.687Z,7.83
2018-09-17T15:20:14.254Z,8.00
2018-09-17T15:22:42.609Z,7.10
2018-09-17T15:25:11.195Z,6.90
2018-09-17T15:27:39.708Z,7.90
2018-09-17T15:30:08.261Z,8.93
2018-09-17T15:32:36.765Z,8.47
2018-09-17T15:35:05.356Z,7.87
2018-09-17T15:37:33.874Z,8.10
2018-09-17T15:40:02.424Z,8.73
2018-09-17T15:42:30.949Z,8.37
2018-09-17T15:44:59.437Z,8.50
2018-09-17T15:47:27.897Z,8.20
2018-09-17T15:49:56.421Z,9.27
2018-09-17T15:52:24.818Z,9.83
2018-09-17T15:54:53.239Z,9.00
2018-09-17T15:57:21.772Z,9.50
2018-09-17T15:59:50.191Z,9.97
2018-09-17T16:02:18.605Z,9.30
